Time;durP1;ratioP1;P1;durP2;ratioP2;P2;SDS_P1;SDS_P2;PMS_P1;PMS_P2;Temp;Humidity;BMP_temperature;BMP_pressure;BME280_temperature;BME280_humidity;BME280_pressure;Samples;Min_cycle;Max_cycle;Signal;HPM_P1;HPM_P2
2024/05/05 00:00:14;;;;;;;13.07;11.95;;;16.50;99.90;;;;;;7505785;26;20272;-77
2024/05/05 00:03:40;;;;;;;11.35;10.20;;;16.50;99.90;;;;;;7513789;26;20233;-74
2024/05/05 00:07:03;;;;;;;11.45;10.65;;;16.50;99.90;;;;;;7521320;26;20305;-75
2024/05/05 00:10:26;;;;;;;11.32;10.45;;;16.40;99.90;;;;;;7515430;26;20228;-75
2024/05/05 00:13:49;;;;;;;11.73;10.82;;;16.50;99.90;;;;;;7498167;26;20352;-75
2024/05/05 00:17:12;;;;;;;11.48;9.95;;;16.50;99.90;;;;;;7506175;26;20280;-75
2024/05/05 00:20:37;;;;;;;9.95;9.15;;;16.50;99.90;;;;;;7519395;26;20231;-75
2024/05/05 00:24:01;;;;;;;10.18;9.38;;;16.60;99.90;;;;;;7507393;26;20279;-76
2024/05/05 00:27:24;;;;;;;9.77;9.13;;;16.60;99.90;;;;;;7515720;26;20233;-77
2024/05/05 00:30:47;;;;;;;10.27;9.48;;;16.60;99.90;;;;;;7516178;26;20249;-75
2024/05/05 00:34:10;;;;;;;8.95;8.35;;;16.60;99.90;;;;;;7504904;26;20271;-75
2024/05/05 00:37:36;;;;;;;9.40;8.68;;;16.60;99.90;;;;;;7523498;26;20228;-74
2024/05/05 00:40:59;;;;;;;10.02;9.23;;;16.50;99.90;;;;;;7511121;26;20707;-75
2024/05/05 00:44:22;;;;;;;11.15;10.25;;;16.30;99.90;;;;;;7508010;26;20284;-75
2024/05/05 00:47:47;;;;;;;10.20;9.50;;;16.30;99.90;;;;;;7506516;26;20233;-75
2024/05/05 00:51:11;;;;;;;10.10;9.40;;;16.40;99.90;;;;;;7517041;26;20233;-76
2024/05/05 00:54:37;;;;;;;10.15;9.30;;;16.30;99.90;;;;;;7505949;26;20312;-74
2024/05/05 00:58:00;;;;;;;11.10;10.27;;;16.40;99.90;;;;;;7517713;26;20279;-75
2024/05/05 01:01:23;;;;;;;10.27;9.57;;;16.40;99.90;;;;;;7517211;26;20264;-73
2024/05/05 01:04:46;;;;;;;10.88;9.93;;;16.40;99.90;;;;;;7516266;26;20336;-76
2024/05/05 01:08:11;;;;;;;10.68;9.77;;;16.30;99.90;;;;;;7512215;26;20278;-76
2024/05/05 01:11:36;;;;;;;11.13;10.43;;;16.30;99.90;;;;;;7501373;26;20359;-75
2024/05/05 01:14:59;;;;;;;10.55;9.85;;;16.10;99.90;;;;;;7502779;26;20627;-77
2024/05/05 01:18:23;;;;;;;10.15;9.55;;;16.10;99.90;;;;;;7512695;26;20287;-74
2024/05/05 01:21:46;;;;;;;11.00;10.18;;;16.00;99.90;;;;;;7522698;26;20742;-74
2024/05/05 01:25:12;;;;;;;10.30;9.57;;;16.00;99.90;;;;;;7518312;26;20779;-75
2024/05/05 01:28:35;;;;;;;10.27;9.40;;;16.00;99.90;;;;;;7512702;26;20237;-76
2024/05/05 01:31:58;;;;;;;10.55;9.85;;;15.90;99.90;;;;;;7503938;26;20646;-76
2024/05/05 01:35:21;;;;;;;11.15;10.02;;;15.80;99.90;;;;;;7500524;26;20338;-74
2024/05/05 01:38:44;;;;;;;11.07;10.05;;;15.90;99.90;;;;;;7514915;26;20581;-74
2024/05/05 01:42:10;;;;;;;10.07;9.27;;;15.90;99.90;;;;;;7504562;26;20344;-74
2024/05/05 01:45:33;;;;;;;10.65;9.77;;;15.90;99.90;;;;;;7498431;26;20228;-73
2024/05/05 01:48:56;;;;;;;9.85;8.95;;;15.80;99.90;;;;;;7509155;26;20244;-74
2024/05/05 01:52:19;;;;;;;11.05;9.52;;;15.80;99.90;;;;;;7522456;26;20229;-74
2024/05/05 01:55:41;;;;;;;11.43;10.52;;;15.80;99.90;;;;;;7494620;26;20233;-74
2024/05/05 01:59:07;;;;;;;11.07;10.00;;;15.80;99.90;;;;;;7498356;26;20752;-75
2024/05/05 02:02:30;;;;;;;10.93;10.18;;;15.90;99.90;;;;;;7507352;26;20230;-75
2024/05/05 02:05:54;;;;;;;11.68;10.65;;;15.70;99.90;;;;;;7513300;26;20262;-73
2024/05/05 02:09:17;;;;;;;11.75;10.85;;;15.60;99.90;;;;;;7518571;26;20335;-75
2024/05/05 02:12:42;;;;;;;11.30;10.25;;;15.50;99.90;;;;;;7509443;26;20237;-75
2024/05/05 02:16:11;;;;;;;10.77;9.98;;;15.60;99.90;;;;;;7508497;26;20233;-76
2024/05/05 02:19:34;;;;;;;11.27;10.38;;;15.60;99.90;;;;;;7510553;26;20228;-73
2024/05/05 02:22:57;;;;;;;12.45;11.38;;;15.60;99.90;;;;;;7513389;26;20232;-75
2024/05/05 02:26:20;;;;;;;11.10;10.25;;;15.60;99.90;;;;;;7530142;26;20715;-74
2024/05/05 02:29:43;;;;;;;11.63;10.73;;;15.60;99.90;;;;;;7520491;26;20232;-74
2024/05/05 02:33:09;;;;;;;12.10;11.20;;;15.70;99.90;;;;;;7509903;26;20283;-75
2024/05/05 02:36:32;;;;;;;12.75;11.68;;;15.70;99.90;;;;;;7525432;26;20228;-74
2024/05/05 02:39:55;;;;;;;12.93;11.93;;;15.60;99.90;;;;;;7518155;26;20233;-75
2024/05/05 02:43:18;;;;;;;11.55;10.75;;;15.70;99.90;;;;;;7514354;26;20229;-75
2024/05/05 02:46:41;;;;;;;11.25;10.48;;;15.50;99.90;;;;;;7504747;26;20270;-74
2024/05/05 02:50:08;;;;;;;11.50;10.70;;;15.40;99.90;;;;;;7501194;26;20228;-74
2024/05/05 02:53:31;;;;;;;12.10;11.20;;;15.40;99.90;;;;;;7524455;26;20228;-73
2024/05/05 02:56:54;;;;;;;11.38;10.48;;;15.50;99.90;;;;;;7511753;26;20228;-74
2024/05/05 03:00:18;;;;;;;11.43;10.63;;;15.40;99.90;;;;;;7520484;26;20401;-74
2024/05/05 03:03:44;;;;;;;11.70;10.80;;;15.20;99.90;;;;;;7518498;26;20703;-74
2024/05/05 03:07:12;;;;;;;11.68;10.88;;;15.00;99.90;;;;;;7516327;26;20228;-74
2024/05/05 03:10:36;;;;;;;11.23;10.48;;;15.00;99.90;;;;;;7511847;26;20233;-74
2024/05/05 03:13:59;;;;;;;12.18;11.07;;;15.00;99.90;;;;;;7515024;26;20232;-74
2024/05/05 03:17:22;;;;;;;11.65;10.65;;;15.00;99.90;;;;;;7515888;26;20716;-75
2024/05/05 03:20:45;;;;;;;11.68;10.68;;;15.00;99.90;;;;;;7519777;26;20228;-75
2024/05/05 03:24:11;;;;;;;11.90;10.90;;;14.90;99.90;;;;;;7515677;26;20244;-76
2024/05/05 03:27:35;;;;;;;11.50;10.52;;;14.70;99.90;;;;;;7520219;26;20233;-73
2024/05/05 03:30:58;;;;;;;13.25;11.95;;;14.70;99.90;;;;;;7517214;26;20614;-74
2024/05/05 03:34:21;;;;;;;12.55;11.32;;;14.80;99.90;;;;;;7485427;26;20271;-74
2024/05/05 03:37:44;;;;;;;11.98;11.07;;;14.90;99.90;;;;;;7510943;26;20738;-73
2024/05/05 03:41:10;;;;;;;12.10;11.13;;;15.00;99.90;;;;;;7494297;26;20228;-75
2024/05/05 03:44:33;;;;;;;11.68;10.88;;;15.10;99.90;;;;;;7503582;26;20230;-74
2024/05/05 03:47:57;;;;;;;12.32;11.20;;;15.20;99.90;;;;;;7503005;26;20263;-75
2024/05/05 03:51:20;;;;;;;11.88;10.88;;;15.20;99.90;;;;;;7500138;26;20616;-75
2024/05/05 03:54:43;;;;;;;11.95;10.98;;;15.20;99.90;;;;;;7518335;26;20248;-74
2024/05/05 03:58:08;;;;;;;11.55;10.60;;;15.10;99.90;;;;;;7519145;26;20232;-74
2024/05/05 04:01:31;;;;;;;11.45;10.55;;;15.20;99.90;;;;;;7517184;26;20407;-74
2024/05/05 04:04:54;;;;;;;11.93;10.77;;;15.30;99.90;;;;;;7507807;26;20233;-74
2024/05/05 04:08:17;;;;;;;11.20;10.30;;;15.30;99.90;;;;;;7521644;26;20263;-73
2024/05/05 04:11:40;;;;;;;13.25;12.15;;;15.40;99.90;;;;;;7506639;26;20237;-73
2024/05/05 04:15:07;;;;;;;13.02;11.85;;;15.50;99.90;;;;;;7508522;26;20236;-75
2024/05/05 04:18:30;;;;;;;12.48;11.52;;;15.60;99.90;;;;;;7518596;26;20224;-75
2024/05/05 04:21:53;;;;;;;12.02;11.20;;;15.70;99.90;;;;;;7498912;26;20268;-74
2024/05/05 04:25:16;;;;;;;11.30;10.48;;;15.80;99.90;;;;;;7484572;26;20732;-75
2024/05/05 04:28:39;;;;;;;11.05;10.15;;;15.80;99.90;;;;;;7504118;26;20294;-74
2024/05/05 04:32:05;;;;;;;11.95;11.05;;;15.90;99.90;;;;;;7520501;26;20325;-75
2024/05/05 04:35:28;;;;;;;11.93;11.02;;;16.00;99.90;;;;;;7508142;26;20279;-74
2024/05/05 04:38:51;;;;;;;13.00;12.00;;;15.90;99.90;;;;;;7518390;26;20228;-74
2024/05/05 04:42:14;;;;;;;10.75;9.82;;;16.00;99.90;;;;;;7514682;26;20237;-74
2024/05/05 04:45:38;;;;;;;12.05;10.95;;;16.10;99.90;;;;;;7497722;26;20233;-74
2024/05/05 04:49:04;;;;;;;12.77;11.90;;;16.20;99.90;;;;;;7519225;26;20221;-75
2024/05/05 04:52:27;;;;;;;14.65;13.55;;;16.30;99.90;;;;;;7509997;26;20331;-74
2024/05/05 04:55:50;;;;;;;13.15;12.13;;;16.30;99.90;;;;;;7505016;26;20221;-76
2024/05/05 04:59:13;;;;;;;13.70;12.60;;;16.30;99.90;;;;;;7496720;26;20615;-75
2024/05/05 05:02:36;;;;;;;13.40;12.40;;;16.30;99.90;;;;;;7521585;26;20228;-75
2024/05/05 05:06:02;;;;;;;14.93;13.68;;;16.30;99.90;;;;;;7488069;26;20337;-76
2024/05/05 05:09:25;;;;;;;16.40;14.98;;;16.30;99.90;;;;;;7495194;26;20331;-75
2024/05/05 05:12:54;;;;;;;23.92;22.00;;;16.30;99.90;;;;;;7500539;26;20695;-74
2024/05/05 05:16:17;;;;;;;15.52;14.23;;;16.40;99.90;;;;;;7497860;26;20233;-75
2024/05/05 05:19:43;;;;;;;15.02;13.93;;;16.50;99.90;;;;;;7516008;26;20574;-76
2024/05/05 05:23:09;;;;;;;17.15;15.80;;;16.50;99.90;;;;;;7516944;26;20232;-75
2024/05/05 05:26:32;;;;;;;19.63;17.95;;;16.60;99.90;;;;;;7511383;26;20263;-75
2024/05/05 05:29:55;;;;;;;18.92;17.33;;;16.60;99.90;;;;;;7514357;26;20230;-74
2024/05/05 05:33:18;;;;;;;17.75;16.35;;;16.70;99.90;;;;;;7501317;26;20571;-75
2024/05/05 05:36:41;;;;;;;19.42;17.63;;;16.70;99.90;;;;;;7509544;26;20240;-75
2024/05/05 05:40:07;;;;;;;17.60;16.08;;;16.80;99.90;;;;;;7508330;26;20228;-77
2024/05/05 05:43:30;;;;;;;17.73;16.33;;;16.90;99.90;;;;;;7508206;26;20232;-75
2024/05/05 05:46:53;;;;;;;18.55;16.95;;;16.90;99.90;;;;;;7512209;26;20240;-76
2024/05/05 05:50:16;;;;;;;15.13;13.80;;;17.10;99.90;;;;;;7513270;26;20228;-75
2024/05/05 05:53:39;;;;;;;16.42;15.13;;;17.20;99.90;;;;;;7510391;26;20221;-75
2024/05/05 05:57:05;;;;;;;13.82;12.65;;;17.30;99.90;;;;;;7521568;26;20274;-75
2024/05/05 06:00:29;;;;;;;15.00;13.75;;;17.40;99.90;;;;;;7495636;26;20275;-77
2024/05/05 06:03:52;;;;;;;12.50;11.50;;;17.40;99.90;;;;;;7515639;26;20345;-75
2024/05/05 06:07:15;;;;;;;12.23;11.32;;;17.50;99.90;;;;;;7519041;26;20228;-76
2024/05/05 06:10:38;;;;;;;12.30;11.38;;;17.60;99.90;;;;;;7503506;26;20244;-76
2024/05/05 06:14:04;;;;;;;13.05;12.05;;;17.70;99.90;;;;;;7509380;26;20283;-77
2024/05/05 06:17:26;;;;;;;12.07;11.18;;;17.80;99.90;;;;;;7507862;26;20287;-75
2024/05/05 06:20:49;;;;;;;11.02;10.13;;;18.00;99.90;;;;;;7510537;26;20328;-76
2024/05/05 06:24:12;;;;;;;11.38;10.45;;;18.10;99.90;;;;;;7499960;26;20236;-76
2024/05/05 06:27:36;;;;;;;11.57;10.65;;;18.30;99.90;;;;;;7511262;26;20245;-73
2024/05/05 06:31:01;;;;;;;10.38;9.65;;;18.40;99.90;;;;;;7506233;26;20266;-76
2024/05/05 06:34:24;;;;;;;9.55;8.75;;;18.60;99.90;;;;;;7504919;26;20232;-76
2024/05/05 06:37:47;;;;;;;8.85;8.02;;;18.80;99.90;;;;;;7516382;26;20225;-75
2024/05/05 06:41:10;;;;;;;8.18;7.57;;;18.90;99.90;;;;;;7497330;26;20337;-77
2024/05/05 06:44:33;;;;;;;8.73;8.02;;;18.80;99.90;;;;;;7500032;26;20568;-75
2024/05/05 06:48:00;;;;;;;7.75;7.25;;;18.70;99.90;;;;;;7513294;26;20228;-76
2024/05/05 06:51:24;;;;;;;7.22;6.78;;;18.90;99.90;;;;;;7507423;26;20236;-76
2024/05/05 06:54:47;;;;;;;7.82;7.00;;;18.90;99.90;;;;;;7514620;26;20229;-76
2024/05/05 06:58:11;;;;;;;7.82;7.32;;;18.80;99.90;;;;;;7498178;26;20562;-77
2024/05/05 07:01:33;;;;;;;7.53;6.78;;;18.90;99.90;;;;;;7500206;26;20233;-77
2024/05/05 07:04:59;;;;;;;7.30;6.80;;;19.10;99.90;;;;;;7504286;26;20244;-76
2024/05/05 07:08:22;;;;;;;15.70;8.38;;;19.40;99.90;;;;;;7512041;26;20326;-76
2024/05/05 07:11:45;;;;;;;9.50;7.70;;;19.70;99.90;;;;;;7493843;26;20245;-78
2024/05/05 07:15:08;;;;;;;8.05;7.32;;;19.90;99.90;;;;;;7524561;26;20236;-77
2024/05/05 07:18:31;;;;;;;10.20;9.40;;;20.00;99.90;;;;;;7516553;26;20232;-76
2024/05/05 07:21:57;;;;;;;7.43;6.82;;;20.20;99.90;;;;;;7524500;26;20233;-77
2024/05/05 07:25:20;;;;;;;8.00;7.35;;;20.50;99.90;;;;;;7510847;26;20233;-78
2024/05/05 07:28:43;;;;;;;7.90;7.30;;;20.60;99.90;;;;;;7521085;26;20275;-77
2024/05/05 07:32:07;;;;;;;7.68;7.07;;;20.90;99.90;;;;;;7518011;26;20236;-78
2024/05/05 07:35:30;;;;;;;8.38;6.80;;;21.20;99.90;;;;;;7515564;26;20239;-78
2024/05/05 07:38:55;;;;;;;7.25;6.65;;;21.10;99.90;;;;;;7507748;26;20232;-77
2024/05/05 07:42:18;;;;;;;7.60;7.10;;;20.80;99.90;;;;;;7515979;26;20335;-78
2024/05/05 07:45:42;;;;;;;8.52;7.93;;;20.80;99.90;;;;;;7516629;26;20785;-77
2024/05/05 07:49:05;;;;;;;7.28;6.78;;;20.80;99.90;;;;;;7517095;26;20271;-77
2024/05/05 07:52:27;;;;;;;8.52;7.82;;;20.90;99.90;;;;;;7516079;26;20233;-77
2024/05/05 07:55:53;;;;;;;8.50;7.90;;;21.20;99.90;;;;;;7498707;26;20232;-78
2024/05/05 07:59:16;;;;;;;7.28;6.65;;;22.00;99.90;;;;;;7503850;26;20271;-80
2024/05/05 08:02:39;;;;;;;6.53;6.03;;;24.20;99.90;;;;;;7516433;26;20236;-79
2024/05/05 08:06:02;;;;;;;6.55;6.13;;;25.70;99.90;;;;;;7502470;26;20357;-79
2024/05/05 08:09:25;;;;;;;6.22;5.82;;;26.90;99.90;;;;;;7523009;26;20224;-79
2024/05/05 08:12:51;;;;;;;6.07;5.47;;;27.30;98.40;;;;;;7509136;26;20271;-80
2024/05/05 08:16:14;;;;;;;5.53;5.13;;;28.80;97.20;;;;;;7518851;26;20267;-81
2024/05/05 08:19:37;;;;;;;5.07;4.78;;;30.00;92.90;;;;;;7500936;26;20232;-80
2024/05/05 08:23:01;;;;;;;5.50;5.10;;;30.50;91.00;;;;;;7505148;26;20230;-82
2024/05/05 08:26:24;;;;;;;5.07;4.72;;;30.60;89.10;;;;;;7519809;26;20275;-82
2024/05/05 08:29:50;;;;;;;5.55;5.10;;;29.20;86.60;;;;;;7514370;26;20275;-81
2024/05/05 08:33:15;;;;;;;4.40;4.15;;;30.10;85.50;;;;;;7509556;26;20657;-81
2024/05/05 08:36:38;;;;;;;4.93;4.53;;;29.90;79.90;;;;;;7495550;26;20268;-81
2024/05/05 08:40:01;;;;;;;4.70;4.35;;;30.50;80.90;;;;;;7503924;26;20280;-81
2024/05/05 08:43:24;;;;;;;4.38;3.97;;;31.40;76.30;;;;;;7504760;26;20302;-82
2024/05/05 08:46:51;;;;;;;5.13;4.63;;;31.00;75.10;;;;;;7516262;26;20238;-82
2024/05/05 08:50:15;;;;;;;4.20;3.92;;;30.30;76.20;;;;;;7509020;26;20229;-80
2024/05/05 08:53:38;;;;;;;4.07;3.75;;;31.20;74.30;;;;;;7515766;26;20766;-79
2024/05/05 08:57:02;;;;;;;3.95;3.65;;;30.40;73.10;;;;;;7505208;26;20283;-83
2024/05/05 09:00:25;;;;;;;4.45;3.83;;;29.80;75.30;;;;;;7518823;26;20236;-81
2024/05/05 09:03:50;;;;;;;3.97;3.63;;;30.30;73.70;;;;;;7512307;26;20271;-79
2024/05/05 09:07:15;;;;;;;4.35;4.05;;;30.70;72.70;;;;;;7506441;26;20975;-81
2024/05/05 09:10:39;;;;;;;3.90;3.70;;;29.90;73.20;;;;;;7489728;26;20228;-86
2024/05/05 09:14:14;;;;;;;4.63;4.28;;;30.80;72.00;;;;;;7524231;26;20233;-81
2024/05/05 09:17:37;;;;;;;3.63;3.42;;;32.10;70.30;;;;;;7512499;26;20260;-84
2024/05/05 09:21:06;;;;;;;4.72;3.88;;;31.40;69.30;;;;;;7511684;26;20277;-82
2024/05/05 09:24:29;;;;;;;6.18;4.10;;;31.20;68.60;;;;;;7509988;26;20240;-83
2024/05/05 09:27:52;;;;;;;3.53;3.28;;;31.30;69.10;;;;;;7513932;26;20271;-83
2024/05/05 09:31:15;;;;;;;3.80;3.55;;;30.70;67.20;;;;;;7509364;26;20229;-81
2024/05/05 09:34:42;;;;;;;3.78;3.58;;;29.40;68.00;;;;;;7500727;26;20241;-83
2024/05/05 09:38:10;;;;;;;4.40;3.05;;;29.80;67.80;;;;;;7515312;26;20233;-81
2024/05/05 09:41:33;;;;;;;3.45;3.25;;;29.90;64.60;;;;;;7503630;26;20228;-81
2024/05/05 09:44:57;;;;;;;4.05;3.40;;;30.70;61.40;;;;;;7502847;26;20228;-80
2024/05/05 09:48:25;;;;;;;3.35;2.97;;;31.10;59.20;;;;;;7516960;26;20259;-83
2024/05/05 09:51:55;;;;;;;3.45;3.08;;;31.50;58.80;;;;;;7515460;26;20714;-83
2024/05/05 09:55:22;;;;;;;3.38;2.95;;;31.70;59.10;;;;;;7513131;26;20275;-82
2024/05/05 09:58:56;;;;;;;3.58;3.28;;;32.00;59.20;;;;;;7513711;26;20224;-82
2024/05/05 10:02:20;;;;;;;3.72;3.42;;;32.40;60.60;;;;;;7507653;26;20233;-81
2024/05/05 10:05:43;;;;;;;3.78;3.22;;;31.60;62.90;;;;;;7511813;26;20237;-83
2024/05/05 10:09:06;;;;;;;3.60;3.30;;;31.70;62.50;;;;;;7514380;26;20568;-81
2024/05/05 10:12:32;;;;;;;3.50;3.30;;;31.90;62.50;;;;;;7515166;26;20228;-82
2024/05/05 10:15:55;;;;;;;3.95;3.10;;;32.80;60.80;;;;;;7514025;26;20271;-81
2024/05/05 10:19:19;;;;;;;3.75;3.42;;;33.60;60.40;;;;;;7503082;26;20229;-81
2024/05/05 10:22:42;;;;;;;4.95;3.20;;;32.30;61.20;;;;;;7496276;26;20280;-80
2024/05/05 10:26:09;;;;;;;3.28;3.03;;;32.50;60.00;;;;;;7506437;26;20232;-82
2024/05/05 10:29:35;;;;;;;2.97;2.72;;;33.70;59.00;;;;;;7499198;26;20262;-82
2024/05/05 10:32:58;;;;;;;3.10;2.90;;;33.60;57.90;;;;;;7506541;26;20261;-82
2024/05/05 10:36:22;;;;;;;3.50;2.80;;;32.30;58.50;;;;;;7499567;26;20272;-83
2024/05/05 10:39:45;;;;;;;6.63;3.10;;;32.20;58.30;;;;;;7505754;26;20232;-81
2024/05/05 10:43:08;;;;;;;3.38;3.17;;;31.10;58.40;;;;;;7510699;26;20268;-82
2024/05/05 10:46:35;;;;;;;3.47;3.00;;;30.80;58.70;;;;;;7506341;26;20284;-81
2024/05/05 10:49:59;;;;;;;3.25;2.97;;;30.50;57.90;;;;;;7497401;26;20244;-82
2024/05/05 10:53:22;;;;;;;3.00;2.80;;;30.20;57.40;;;;;;7508613;26;20650;-81
2024/05/05 10:56:45;;;;;;;4.53;2.80;;;30.20;57.10;;;;;;7521411;26;20279;-82
2024/05/05 11:00:10;;;;;;;3.97;2.75;;;30.20;56.40;;;;;;7516916;26;20751;-80
2024/05/05 11:03:37;;;;;;;4.45;3.38;;;30.50;56.40;;;;;;7509971;26;20379;-81
2024/05/05 11:07:00;;;;;;;3.10;2.88;;;30.70;55.70;;;;;;7504338;26;20762;-83
2024/05/05 11:10:23;;;;;;;3.50;3.00;;;31.50;54.60;;;;;;7514828;26;20233;-83
2024/05/05 11:13:47;;;;;;;2.40;2.10;;;31.40;54.60;;;;;;7513310;26;20334;-81
2024/05/05 11:17:10;;;;;;;3.42;2.70;;;30.70;55.20;;;;;;7502913;26;20233;-81
2024/05/05 11:20:39;;;;;;;2.60;2.40;;;30.80;54.40;;;;;;7522249;26;20814;-81
2024/05/05 11:24:03;;;;;;;3.63;2.67;;;30.80;53.70;;;;;;7509965;26;20276;-82
2024/05/05 11:27:26;;;;;;;4.07;3.40;;;31.20;53.60;;;;;;7499754;26;20267;-83
2024/05/05 11:30:51;;;;;;;3.42;3.13;;;30.30;54.90;;;;;;7506613;26;20233;-82
2024/05/05 11:34:14;;;;;;;4.40;3.83;;;30.80;54.90;;;;;;7514179;26;20217;-81
2024/05/05 11:37:39;;;;;;;4.30;4.00;;;29.90;55.70;;;;;;7517936;26;20251;-81
2024/05/05 11:41:02;;;;;;;3.80;3.50;;;28.70;58.00;;;;;;7518337;26;20236;-81
2024/05/05 11:44:35;;;;;;;3.92;3.60;;;28.30;59.40;;;;;;7516838;26;20731;-81
2024/05/05 11:48:37;;;;;;;3.75;3.22;;;28.50;59.30;;;;;;7504689;26;20292;-81
2024/05/05 11:52:37;;;;;;;3.85;3.53;;;28.80;59.10;;;;;;7497124;26;20233;-80
2024/05/05 11:56:17;;;;;;;5.78;4.63;;;29.60;58.60;;;;;;7522193;26;20703;-81
2024/05/05 11:59:40;;;;;;;5.90;3.80;;;29.90;58.50;;;;;;7523734;26;20267;-80
2024/05/05 12:03:02;;;;;;;4.20;3.80;;;29.10;60.20;;;;;;7505063;26;20820;-81
2024/05/05 12:06:26;;;;;;;3.78;3.58;;;29.20;59.90;;;;;;7520232;26;20232;-80
2024/05/05 12:10:11;;;;;;;4.10;3.85;;;29.00;59.20;;;;;;7515969;26;20232;-80
2024/05/05 12:13:37;;;;;;;3.85;3.55;;;29.60;58.20;;;;;;7517756;26;20233;-80
2024/05/05 12:17:00;;;;;;;4.80;4.40;;;29.40;57.20;;;;;;7523796;26;20228;-80
2024/05/05 12:20:34;;;;;;;5.85;5.45;;;28.90;56.90;;;;;;7523188;26;20724;-81
2024/05/05 12:23:57;;;;;;;4.65;4.35;;;28.50;56.40;;;;;;7519748;26;20442;-79
2024/05/05 12:27:20;;;;;;;4.53;4.32;;;28.60;56.50;;;;;;7520675;26;20232;-81
2024/05/05 12:30:46;;;;;;;3.63;3.33;;;28.80;57.10;;;;;;7523829;26;20270;-81
2024/05/05 12:34:09;;;;;;;5.13;4.18;;;29.20;57.10;;;;;;7505444;26;20318;-81
2024/05/05 12:37:32;;;;;;;3.38;3.08;;;29.00;56.70;;;;;;7505399;26;20274;-81
2024/05/05 12:40:56;;;;;;;6.15;3.55;;;29.40;56.90;;;;;;7514074;26;20271;-81
2024/05/05 12:44:19;;;;;;;3.38;3.08;;;29.30;57.30;;;;;;7511042;26;20228;-81
2024/05/05 12:47:45;;;;;;;4.25;3.60;;;29.50;57.10;;;;;;7521729;26;20228;-80
2024/05/05 12:51:08;;;;;;;3.15;2.95;;;29.40;56.10;;;;;;7513393;26;20229;-80
2024/05/05 12:54:31;;;;;;;3.10;2.90;;;29.00;56.30;;;;;;7515005;26;20232;-80
2024/05/05 12:57:54;;;;;;;3.42;3.00;;;28.80;56.00;;;;;;7507674;26;20715;-81
2024/05/05 13:01:17;;;;;;;3.10;2.88;;;28.20;56.80;;;;;;7504027;26;20229;-81
2024/05/05 13:04:43;;;;;;;3.70;3.47;;;27.90;56.90;;;;;;7520397;26;20600;-81
2024/05/05 13:08:07;;;;;;;4.20;2.90;;;28.30;57.40;;;;;;7522565;26;20237;-81
2024/05/05 13:11:30;;;;;;;2.97;2.70;;;28.00;56.60;;;;;;7517546;26;20233;-79
2024/05/05 13:14:53;;;;;;;5.70;2.65;;;28.00;56.20;;;;;;7517880;26;20343;-79
2024/05/05 13:18:16;;;;;;;2.47;2.38;;;28.30;55.60;;;;;;7510296;26;20232;-80
2024/05/05 13:21:42;;;;;;;3.53;3.03;;;28.00;56.50;;;;;;7521577;26;20232;-81
2024/05/05 13:25:05;;;;;;;3.63;3.40;;;28.20;56.90;;;;;;7492740;26;20233;-79
2024/05/05 13:28:29;;;;;;;3.00;2.83;;;28.40;56.80;;;;;;7497198;26;20311;-80
2024/05/05 13:31:52;;;;;;;2.67;2.58;;;28.50;56.40;;;;;;7505995;26;20229;-81
2024/05/05 13:35:15;;;;;;;2.65;2.45;;;28.60;56.90;;;;;;7501472;26;20228;-79
2024/05/05 13:38:41;;;;;;;2.65;2.45;;;27.90;56.50;;;;;;7507624;26;20260;-81
2024/05/05 13:42:04;;;;;;;2.75;2.55;;;27.70;56.50;;;;;;7519882;26;20231;-81
2024/05/05 13:45:27;;;;;;;2.38;2.10;;;27.80;56.40;;;;;;7511798;26;20276;-80
2024/05/05 13:48:50;;;;;;;2.00;1.90;;;28.40;54.80;;;;;;7508454;26;20663;-79
2024/05/05 13:52:13;;;;;;;2.17;2.08;;;28.70;54.00;;;;;;7505449;26;20614;-80
2024/05/05 13:55:39;;;;;;;2.95;2.75;;;28.60;54.20;;;;;;7517057;26;20274;-81
2024/05/05 13:59:01;;;;;;;2.08;1.98;;;29.00;54.40;;;;;;7513167;26;20271;-81
2024/05/05 14:02:25;;;;;;;1.98;1.88;;;28.20;55.00;;;;;;7515365;26;20244;-81
2024/05/05 14:05:48;;;;;;;2.17;1.98;;;28.60;54.00;;;;;;7515534;26;20279;-80
2024/05/05 14:09:11;;;;;;;3.58;3.00;;;28.70;53.80;;;;;;7512025;26;20808;-79
2024/05/05 14:12:37;;;;;;;2.17;2.08;;;29.00;54.70;;;;;;7511297;26;20283;-81
2024/05/05 14:16:00;;;;;;;2.60;2.40;;;28.90;55.30;;;;;;7522160;26;20766;-80
2024/05/05 14:19:23;;;;;;;2.15;2.05;;;28.80;54.70;;;;;;7522043;26;20228;-80
2024/05/05 14:22:46;;;;;;;2.75;2.25;;;29.00;54.70;;;;;;7516341;26;20757;-81
2024/05/05 14:26:09;;;;;;;2.80;2.60;;;29.10;54.50;;;;;;7521037;26;20232;-82
2024/05/05 14:29:35;;;;;;;3.55;3.25;;;28.90;54.70;;;;;;7496879;26;20272;-79
2024/05/05 14:32:58;;;;;;;3.60;3.40;;;29.00;54.80;;;;;;7514546;26;20267;-80
2024/05/05 14:36:21;;;;;;;3.10;2.83;;;29.00;55.70;;;;;;7506458;26;20232;-81
2024/05/05 14:39:44;;;;;;;2.60;2.40;;;29.00;54.80;;;;;;7520576;26;20229;-81
2024/05/05 14:43:07;;;;;;;3.13;2.85;;;28.40;56.20;;;;;;7516589;26;20274;-81
2024/05/05 14:46:33;;;;;;;2.80;2.60;;;28.60;56.60;;;;;;7521272;26;20601;-81
2024/05/05 14:49:56;;;;;;;3.05;2.85;;;28.60;56.70;;;;;;7521672;26;21063;-80
2024/05/05 14:53:19;;;;;;;3.33;3.08;;;28.80;56.90;;;;;;7512121;26;20761;-80
2024/05/05 14:56:42;;;;;;;4.05;2.95;;;28.90;56.80;;;;;;7521494;26;20351;-79
2024/05/05 15:00:06;;;;;;;3.08;2.80;;;29.00;56.70;;;;;;7518332;26;20228;-79
2024/05/05 15:03:31;;;;;;;3.20;3.00;;;28.60;57.20;;;;;;7521392;26;20229;-81
2024/05/05 15:06:55;;;;;;;4.07;3.78;;;28.60;57.90;;;;;;7512734;26;20234;-81
2024/05/05 15:10:18;;;;;;;3.22;2.97;;;28.00;58.00;;;;;;7511940;26;20240;-79
2024/05/05 15:13:41;;;;;;;4.10;3.25;;;27.50;58.50;;;;;;7510125;26;20279;-80
2024/05/05 15:17:04;;;;;;;3.83;3.53;;;27.90;58.40;;;;;;7525678;26;20540;-81
2024/05/05 15:20:30;;;;;;;3.17;2.97;;;28.10;58.10;;;;;;7523913;26;20232;-81
2024/05/05 15:23:53;;;;;;;3.22;3.03;;;27.90;57.90;;;;;;7510264;26;20281;-81
2024/05/05 15:27:16;;;;;;;4.43;4.13;;;27.50;58.00;;;;;;7521665;26;20228;-79
2024/05/05 15:30:39;;;;;;;20.08;18.63;;;27.80;58.30;;;;;;7505944;26;20271;-79
2024/05/05 15:34:02;;;;;;;6.97;6.32;;;27.80;58.10;;;;;;7507954;26;20237;-81
2024/05/05 15:37:32;;;;;;;4.32;4.13;;;27.70;58.50;;;;;;7507027;26;20232;-78
2024/05/05 15:40:55;;;;;;;3.20;3.05;;;27.30;58.20;;;;;;7511452;26;20229;-80
2024/05/05 15:44:18;;;;;;;3.58;3.33;;;27.00;58.30;;;;;;7527119;26;20229;-80
2024/05/05 15:47:41;;;;;;;3.15;3.03;;;27.20;58.00;;;;;;7521988;26;20228;-80
2024/05/05 15:51:08;;;;;;;4.05;3.75;;;27.30;59.20;;;;;;7518018;26;20283;-80
2024/05/05 15:54:34;;;;;;;3.85;3.50;;;27.30;59.90;;;;;;7524188;26;20687;-79
2024/05/05 15:57:57;;;;;;;2.90;2.70;;;27.30;60.30;;;;;;7525353;26;20695;-80
2024/05/05 16:01:20;;;;;;;3.10;2.70;;;26.70;56.80;;;;;;7505779;26;20720;-81
2024/05/05 16:04:44;;;;;;;4.05;3.67;;;26.60;57.20;;;;;;7518512;26;20229;-81
2024/05/05 16:08:07;;;;;;;3.28;3.17;;;26.50;59.50;;;;;;7522124;26;20229;-82
2024/05/05 16:11:40;;;;;;;3.60;3.40;;;26.90;59.00;;;;;;7517635;26;20735;-81
2024/05/05 16:15:03;;;;;;;6.75;6.25;;;26.90;59.20;;;;;;7524235;26;20232;-80
2024/05/05 16:18:26;;;;;;;3.70;3.50;;;26.90;59.80;;;;;;7514974;26;20229;-80
2024/05/05 16:21:49;;;;;;;4.15;3.83;;;26.60;61.30;;;;;;7521957;26;20229;-80
2024/05/05 16:25:12;;;;;;;4.22;3.97;;;26.20;60.40;;;;;;7519853;26;20229;-80
2024/05/05 16:28:38;;;;;;;4.30;4.10;;;26.10;60.20;;;;;;7523097;26;20272;-80
2024/05/05 16:32:01;;;;;;;6.13;5.72;;;26.20;60.50;;;;;;7526416;26;20271;-78
2024/05/05 16:35:24;;;;;;;3.63;3.35;;;26.20;60.90;;;;;;7528175;26;20331;-81
2024/05/05 16:38:47;;;;;;;4.18;3.88;;;26.30;61.10;;;;;;7516850;26;20279;-80
2024/05/05 16:42:10;;;;;;;4.00;3.80;;;26.20;61.20;;;;;;7522560;26;20262;-79
2024/05/05 16:45:36;;;;;;;4.40;4.10;;;25.70;62.40;;;;;;7526055;26;20228;-77
2024/05/05 16:49:01;;;;;;;5.10;4.80;;;25.50;63.10;;;;;;7526485;26;20259;-80
2024/05/05 16:52:24;;;;;;;6.32;5.93;;;25.60;62.90;;;;;;7510333;26;20233;-79
2024/05/05 16:55:47;;;;;;;5.45;5.07;;;25.40;63.40;;;;;;7507352;26;20229;-78
2024/05/05 16:59:10;;;;;;;4.78;4.47;;;25.10;64.60;;;;;;7508394;26;20279;-80
2024/05/05 17:02:35;;;;;;;4.18;3.95;;;25.20;64.30;;;;;;7522911;26;20228;-79
2024/05/05 17:05:58;;;;;;;4.25;4.05;;;25.30;64.20;;;;;;7515601;26;20568;-80
2024/05/05 17:09:21;;;;;;;7.40;6.80;;;25.10;64.60;;;;;;7512317;26;20333;-80
2024/05/05 17:12:44;;;;;;;6.75;6.10;;;25.10;64.80;;;;;;7521545;26;20232;-80
2024/05/05 17:16:09;;;;;;;5.20;4.82;;;25.20;65.00;;;;;;7511071;26;20296;-81
2024/05/05 17:19:34;;;;;;;4.30;4.00;;;25.10;65.60;;;;;;7525069;26;20228;-80
2024/05/05 17:22:57;;;;;;;3.80;3.60;;;25.00;65.90;;;;;;7509160;26;20287;-78
2024/05/05 17:26:20;;;;;;;3.60;3.40;;;24.80;66.00;;;;;;7522838;26;20233;-80
2024/05/05 17:29:42;;;;;;;4.40;4.13;;;24.70;66.30;;;;;;7509154;26;20229;-79
2024/05/05 17:33:06;;;;;;;4.00;3.72;;;24.50;66.20;;;;;;7508785;26;20267;-78